createdAt,value
2018-01-13T00:00:11.407Z,15.07
2018-01-13T00:02:39.102Z,15.70
2018-01-13T00:05:06.763Z,15.50
2018-01-13T00:07:34.469Z,17.00
2018-01-13T00:10:02.178Z,14.90
2018-01-13T00:12:29.882Z,15.10
2018-01-13T00:14:57.544Z,15.77
2018-01-13T00:17:25.239Z,16.13
2018-01-13T00:19:52.894Z,14.27
2018-01-13T00:22:20.618Z,15.00
2018-01-13T00:24:48.378Z,15.07
2018-01-13T00:27:16.086Z,15.40
2018-01-13T00:29:43.744Z,15.13
2018-01-13T00:32:11.437Z,14.97
2018-01-13T00:34:39.858Z,16.10
2018-01-13T00:37:07.558Z,16.07
2018-01-13T00:39:35.235Z,15.30
2018-01-13T00:42:03.730Z,14.00
2018-01-13T00:44:31.390Z,16.07
2018-01-13T00:46:59.392Z,15.30
2018-01-13T00:49:27.038Z,18.23
2018-01-13T00:51:54.741Z,18.50
2018-01-13T00:54:22.395Z,18.87
2018-01-13T00:56:50.147Z,18.60
2018-01-13T00:59:17.798Z,18.57
2018-01-13T01:01:45.718Z,18.97
2018-01-13T01:04:13.372Z,17.63
2018-01-13T01:06:41.031Z,16.90
2018-01-13T01:09:09.489Z,19.07
2018-01-13T01:11:37.156Z,16.10
2018-01-13T01:14:05.625Z,17.43
2018-01-13T01:16:33.282Z,16.90
2018-01-13T01:19:00.987Z,17.30
2018-01-13T01:21:28.640Z,15.80
2018-01-13T01:23:56.335Z,16.73
2018-01-13T01:26:23.983Z,17.37
2018-01-13T01:28:51.682Z,16.33
2018-01-13T01:31:19.347Z,17.30
2018-01-13T01:33:47.820Z,16.60
2018-01-13T01:36:15.493Z,16.07
2018-01-13T01:38:43.958Z,15.50
2018-01-13T01:41:11.615Z,15.03
2018-01-13T01:43:39.310Z,14.77
2018-01-13T01:46:06.971Z,15.03
2018-01-13T01:48:34.697Z,16.23
2018-01-13T01:51:02.358Z,14.00
2018-01-13T01:53:30.822Z,16.00
2018-01-13T01:55:58.470Z,14.57
2018-01-13T01:58:26.167Z,14.20
2018-01-13T02:00:54.598Z,14.97
2018-01-13T02:03:22.290Z,14.20
2018-01-13T02:05:50.710Z,14.10
2018-01-13T02:08:18.406Z,14.20
2018-01-13T02:10:46.059Z,13.80
2018-01-13T02:13:13.770Z,15.60
2018-01-13T02:15:41.434Z,14.73
2018-01-13T02:18:09.143Z,15.73
2018-01-13T02:20:36.808Z,15.77
2018-01-13T02:23:04.510Z,15.33
2018-01-13T02:25:32.162Z,18.10
2018-01-13T02:28:00.623Z,15.50
2018-01-13T02:30:29.047Z,15.13
2018-01-13T02:32:56.744Z,15.93
2018-01-13T02:35:24.398Z,15.73
2018-01-13T02:37:52.109Z,16.03
2018-01-13T02:40:19.771Z,15.93
2018-01-13T02:42:47.473Z,15.77
2018-01-13T02:45:15.130Z,16.73
2018-01-13T02:47:42.828Z,17.50
2018-01-13T02:50:11.252Z,15.60
2018-01-13T02:52:38.949Z,15.90
2018-01-13T02:55:06.607Z,15.87
2018-01-13T02:57:34.310Z,16.70
2018-01-13T03:00:01.973Z,16.37
2018-01-13T03:02:29.694Z,17.40
2018-01-13T03:04:58.127Z,16.70
2018-01-13T03:07:25.786Z,17.40
2018-01-13T03:09:53.484Z,17.97
2018-01-13T03:12:21.156Z,17.97
2018-01-13T03:14:49.627Z,18.57
2018-01-13T03:17:18.047Z,17.50
2018-01-13T03:19:45.747Z,18.93
2018-01-13T03:22:13.399Z,20.00
2018-01-13T03:24:41.094Z,19.30
2018-01-13T03:27:09.509Z,17.90
2018-01-13T03:29:37.203Z,20.10
2018-01-13T03:32:04.857Z,21.17
2018-01-13T03:34:32.546Z,19.73
2018-01-13T03:37:00.958Z,19.00
2018-01-13T03:39:28.645Z,19.47
2018-01-13T03:41:56.297Z,18.60
2018-01-13T03:44:23.998Z,17.67
2018-01-13T03:46:52.421Z,19.93
2018-01-13T03:49:20.118Z,18.13
2018-01-13T03:51:47.770Z,20.00
2018-01-13T03:54:15.474Z,16.93
2018-01-13T03:56:43.136Z,19.40
2018-01-13T03:59:10.843Z,19.57
2018-01-13T04:01:38.494Z,17.60
2018-01-13T04:04:06.181Z,17.13
2018-01-13T04:06:33.858Z,19.37
2018-01-13T04:09:02.318Z,17.30
2018-01-13T04:11:29.971Z,17.10
2018-01-13T04:13:57.661Z,19.60
2018-01-13T04:16:26.096Z,19.30
2018-01-13T04:18:53.802Z,19.53
2018-01-13T04:21:21.482Z,19.07
2018-01-13T04:23:49.186Z,17.20
2018-01-13T04:26:16.855Z,17.07
2018-01-13T04:28:44.648Z,17.53
2018-01-13T04:31:12.302Z,17.27
2018-01-13T04:33:40.030Z,17.43
2018-01-13T04:36:07.705Z,16.70
2018-01-13T04:38:36.174Z,17.93
2018-01-13T04:41:03.843Z,18.33
2018-01-13T04:43:32.310Z,18.57
2018-01-13T04:45:59.976Z,17.03
2018-01-13T04:48:28.441Z,17.00
2018-01-13T04:50:56.097Z,16.67
2018-01-13T04:53:23.790Z,17.67
2018-01-13T04:55:51.467Z,18.47
2018-01-13T04:58:19.170Z,16.80
2018-01-13T05:00:46.840Z,16.90
2018-01-13T05:03:14.619Z,17.50
2018-01-13T05:05:43.043Z,17.50
2018-01-13T05:08:10.749Z,16.73
2018-01-13T05:10:39.217Z,15.60
2018-01-13T05:13:06.883Z,15.50
2018-01-13T05:15:35.361Z,17.33
2018-01-13T05:18:03.027Z,17.13
2018-01-13T05:20:31.484Z,16.63
2018-01-13T05:22:59.139Z,17.67
2018-01-13T05:25:26.837Z,18.27
2018-01-13T05:27:55.263Z,16.63
2018-01-13T05:30:22.950Z,18.97
2018-01-13T05:32:50.597Z,17.40
2018-01-13T05:35:18.327Z,18.10
2018-01-13T05:37:45.973Z,18.73
2018-01-13T05:40:13.701Z,17.90
2018-01-13T05:42:42.115Z,17.47
2018-01-13T05:45:10.087Z,17.43
2018-01-13T05:47:37.742Z,17.30
2018-01-13T05:50:05.434Z,17.47
2018-01-13T05:52:33.081Z,17.80
2018-01-13T05:55:00.775Z,17.40
2018-01-13T05:57:29.198Z,16.13
2018-01-13T05:59:56.893Z,16.80
2018-01-13T06:02:24.538Z,17.17
2018-01-13T06:04:52.225Z,18.07
2018-01-13T06:07:19.870Z,17.03
2018-01-13T06:09:47.562Z,17.93
2018-01-13T06:12:15.978Z,17.30
2018-01-13T06:14:43.665Z,17.13
2018-01-13T06:17:11.327Z,18.40
2018-01-13T06:19:39.031Z,16.70
2018-01-13T06:22:06.690Z,18.20
2018-01-13T06:24:34.394Z,16.13
2018-01-13T06:27:02.062Z,17.67
2018-01-13T06:29:29.767Z,18.57
2018-01-13T06:31:57.429Z,17.80
2018-01-13T06:34:25.143Z,18.47
2018-01-13T06:36:52.807Z,17.00
2018-01-13T06:39:20.509Z,16.20
2018-01-13T06:41:48.166Z,17.47
2018-01-13T06:44:15.866Z,17.27
2018-01-13T06:46:43.524Z,16.80
2018-01-13T06:49:11.231Z,18.43
2018-01-13T06:51:39.656Z,18.80
2018-01-13T06:54:07.383Z,17.70
2018-01-13T06:56:35.051Z,19.90
2018-01-13T06:59:02.750Z,17.00
2018-01-13T07:01:30.411Z,18.70
2018-01-13T07:03:58.138Z,19.90
2018-01-13T07:06:25.803Z,17.83
2018-01-13T07:08:53.506Z,19.37
2018-01-13T07:11:21.402Z,18.87
2018-01-13T07:13:49.107Z,19.80
2018-01-13T07:16:16.762Z,18.80
2018-01-13T07:18:44.417Z,17.03
2018-01-13T07:21:12.118Z,27.43
2018-01-13T07:23:39.773Z,28.80
2018-01-13T07:26:07.471Z,21.93
2018-01-13T07:28:35.130Z,18.37
2018-01-13T07:31:02.835Z,17.03
2018-01-13T07:33:30.497Z,17.80
2018-01-13T07:35:58.198Z,18.03
2018-01-13T07:38:25.853Z,18.27
2018-01-13T07:40:53.564Z,17.23
2018-01-13T07:43:21.230Z,18.37
2018-01-13T07:45:48.938Z,18.20
2018-01-13T07:48:16.603Z,19.17
2018-01-13T07:50:44.342Z,20.07
2018-01-13T07:53:12.762Z,19.20
2018-01-13T07:55:40.463Z,18.83
2018-01-13T07:58:08.118Z,21.23
2018-01-13T08:00:35.823Z,19.83
2018-01-13T08:03:03.486Z,19.47
2018-01-13T08:05:31.191Z,18.53
2018-01-13T08:07:58.850Z,20.63
2018-01-13T08:10:26.558Z,21.07
2018-01-13T08:12:54.239Z,29.27
2018-01-13T08:15:22.081Z,25.20
2018-01-13T08:17:49.826Z,21.90
2018-01-13T08:20:18.481Z,19.67
2018-01-13T08:22:46.291Z,20.27
2018-01-13T08:25:14.783Z,21.27
2018-01-13T08:27:42.447Z,20.10
2018-01-13T08:30:10.372Z,18.93
2018-01-13T08:32:38.043Z,18.50
2018-01-13T08:35:05.831Z,20.20
2018-01-13T08:37:34.314Z,18.50
2018-01-13T08:40:02.112Z,19.10
2018-01-13T08:42:30.559Z,16.00
2018-01-13T08:44:58.259Z,17.13
2018-01-13T08:47:26.853Z,16.77
2018-01-13T08:49:54.571Z,17.33
2018-01-13T08:52:22.434Z,15.27
2018-01-13T08:54:50.334Z,16.83
2018-01-13T08:57:18.007Z,18.10
2018-01-13T08:59:46.515Z,17.33
2018-01-13T09:02:16.854Z,16.20
2018-01-13T09:04:44.589Z,16.23
2018-01-13T09:07:12.335Z,15.20
2018-01-13T09:09:40.052Z,16.20
2018-01-13T09:12:07.755Z,16.30
2018-01-13T09:14:35.463Z,15.53
2018-01-13T09:17:03.152Z,15.50
2018-01-13T09:19:30.947Z,14.67
2018-01-13T09:21:58.660Z,14.97
2018-01-13T09:24:27.529Z,16.30
2018-01-13T09:26:56.167Z,14.97
2018-01-13T09:29:23.922Z,15.93
2018-01-13T09:31:52.607Z,17.50
2018-01-13T09:34:20.294Z,17.23
2018-01-13T09:36:48.128Z,16.77
2018-01-13T09:39:15.898Z,14.93
2018-01-13T09:41:43.675Z,15.63
2018-01-13T09:44:11.528Z,15.87
2018-01-13T09:46:40.211Z,15.67
2018-01-13T09:49:08.007Z,15.57
2018-01-13T09:51:35.856Z,14.50
2018-01-13T09:54:03.562Z,14.50
2018-01-13T09:56:31.409Z,14.00
2018-01-13T09:58:59.280Z,15.50
2018-01-13T10:01:27.171Z,14.60
2018-01-13T10:04:12.510Z,14.37
2018-01-13T10:06:40.281Z,14.47
2018-01-13T10:09:08.071Z,14.30
2018-01-13T10:11:36.631Z,15.33
2018-01-13T10:14:04.442Z,15.03
2018-01-13T10:16:32.283Z,15.23
2018-01-13T10:18:59.959Z,12.27
2018-01-13T10:21:27.801Z,13.20
2018-01-13T10:23:55.516Z,13.67
2018-01-13T10:26:23.325Z,13.03
2018-01-13T10:28:51.102Z,13.73
2018-01-13T10:31:19.536Z,12.97
2018-01-13T10:33:47.782Z,12.90
2018-01-13T10:36:17.390Z,12.80
2018-01-13T10:38:45.052Z,12.63
2018-01-13T10:41:12.870Z,13.00
2018-01-13T10:43:40.704Z,12.33
2018-01-13T10:46:08.504Z,13.13
2018-01-13T10:48:36.304Z,13.27
2018-01-13T10:51:04.933Z,12.73
2018-01-13T10:53:33.489Z,13.20
2018-01-13T10:56:02.194Z,13.60
2018-01-13T10:58:30.713Z,13.00
2018-01-13T11:00:59.370Z,12.00
2018-01-13T11:03:27.049Z,12.23
2018-01-13T11:05:54.879Z,11.43
2018-01-13T11:08:22.555Z,12.00
2018-01-13T11:10:50.265Z,12.83
2018-01-13T11:13:18.029Z,12.27
2018-01-13T11:15:45.924Z,10.80
2018-01-13T11:18:13.717Z,11.90
2018-01-13T11:20:41.618Z,12.37
2018-01-13T11:23:10.077Z,12.90
2018-01-13T11:25:37.859Z,10.57
2018-01-13T11:28:05.543Z,11.77
2018-01-13T11:30:34.213Z,11.00
2018-01-13T11:33:02.819Z,11.60
2018-01-13T11:35:30.530Z,11.40
2018-01-13T11:37:58.298Z,10.87
2018-01-13T11:40:26.746Z,11.20
2018-01-13T11:42:54.459Z,11.90
2018-01-13T11:45:22.954Z,11.27
2018-01-13T11:47:50.661Z,10.90
2018-01-13T11:50:18.634Z,11.57
2018-01-13T11:52:46.594Z,12.40
2018-01-13T11:55:14.247Z,13.20
2018-01-13T11:57:42.222Z,12.93
2018-01-13T12:00:09.905Z,13.47
2018-01-13T12:02:37.962Z,13.23
2018-01-13T12:05:06.333Z,13.03
2018-01-13T12:07:34.098Z,13.03
2018-01-13T12:10:01.855Z,14.10
2018-01-13T12:12:29.872Z,14.23
2018-01-13T12:14:57.604Z,16.47
2018-01-13T12:17:25.307Z,15.20
2018-01-13T12:19:52.972Z,17.07
2018-01-13T12:22:20.700Z,12.83
2018-01-13T12:24:49.135Z,14.53
2018-01-13T12:27:16.838Z,14.10
2018-01-13T12:29:45.282Z,13.87
2018-01-13T12:32:12.990Z,13.97
2018-01-13T12:34:40.699Z,19.40
2018-01-13T12:37:08.404Z,39.63
2018-01-13T12:39:36.078Z,33.47
2018-01-13T12:42:03.841Z,16.80
2018-01-13T12:44:31.498Z,14.40
2018-01-13T12:46:59.210Z,13.53
2018-01-13T12:49:26.891Z,13.20
2018-01-13T12:51:55.373Z,13.10
2018-01-13T12:54:23.807Z,14.00
2018-01-13T12:56:51.520Z,13.60
2018-01-13T12:59:19.962Z,13.13
2018-01-13T13:01:47.663Z,12.70
2018-01-13T13:04:15.520Z,13.60
2018-01-13T13:06:43.247Z,11.83
2018-01-13T13:09:10.919Z,12.03
2018-01-13T13:11:38.725Z,11.00
2018-01-13T13:14:06.406Z,10.43
2018-01-13T13:16:34.262Z,11.27
2018-01-13T13:19:02.048Z,12.90
2018-01-13T13:21:29.866Z,11.33
2018-01-13T13:23:57.676Z,12.83
2018-01-13T13:26:26.170Z,10.63
2018-01-13T13:28:54.007Z,12.13
2018-01-13T13:31:21.956Z,10.43
2018-01-13T13:33:49.691Z,12.07
2018-01-13T13:36:17.568Z,13.10
2018-01-13T13:38:46.232Z,12.47
2018-01-13T13:41:13.937Z,11.50
2018-01-13T13:43:41.719Z,12.10
2018-01-13T13:46:10.199Z,13.17
2018-01-13T13:48:37.959Z,10.93
2018-01-13T13:51:05.749Z,13.00
2018-01-13T13:53:33.605Z,12.73
2018-01-13T13:56:01.442Z,13.30
2018-01-13T13:58:29.167Z,12.73
2018-01-13T14:01:21.861Z,13.13
2018-01-13T14:03:24.851Z,12.03
2018-01-13T14:05:53.370Z,13.20
2018-01-13T14:08:21.220Z,13.30
2018-01-13T14:10:48.894Z,13.63
2018-01-13T14:13:16.606Z,12.30
2018-01-13T14:15:44.456Z,14.17
2018-01-13T14:18:12.943Z,12.07
2018-01-13T14:20:40.708Z,12.37
2018-01-13T14:23:09.306Z,13.90
2018-01-13T14:25:37.124Z,13.43
2018-01-13T14:28:04.923Z,16.20
2018-01-13T14:30:32.596Z,15.17
2018-01-13T14:33:01.289Z,17.10
2018-01-13T14:35:29.028Z,13.70
2018-01-13T14:37:56.863Z,16.30
2018-01-13T14:40:24.661Z,15.83
2018-01-13T14:42:52.367Z,15.60
2018-01-13T14:45:20.095Z,15.50
2018-01-13T14:47:47.830Z,15.00
2018-01-13T14:50:16.253Z,13.20
2018-01-13T14:52:44.015Z,12.10
2018-01-13T14:55:11.765Z,12.90
2018-01-13T14:57:39.606Z,13.83
2018-01-13T15:00:07.375Z,16.27
2018-01-13T15:02:35.112Z,18.10
2018-01-13T15:05:03.686Z,21.97
2018-01-13T15:07:32.257Z,21.60
2018-01-13T15:10:00.061Z,23.40
2018-01-13T15:12:27.838Z,22.40
2018-01-13T15:14:55.884Z,21.90
2018-01-13T15:17:24.460Z,22.50
2018-01-13T15:19:52.923Z,23.00
2018-01-13T15:22:20.679Z,21.13
2018-01-13T15:24:48.405Z,21.80
2018-01-13T15:27:16.227Z,19.63
2018-01-13T15:29:44.749Z,18.30
2018-01-13T15:32:12.562Z,16.97
2018-01-13T15:34:40.278Z,14.60
2018-01-13T15:37:08.210Z,13.57
2018-01-13T15:39:35.979Z,16.80
2018-01-13T15:42:03.902Z,16.13
2018-01-13T15:44:32.465Z,16.17
2018-01-13T15:47:00.190Z,15.60
2018-01-13T15:49:28.716Z,14.43
2018-01-13T15:51:57.220Z,15.33
2018-01-13T15:56:59.799Z,17.50
2018-01-13T15:59:28.244Z,19.57
2018-01-13T16:01:56.063Z,15.07
2018-01-13T16:04:23.756Z,14.13
2018-01-13T16:06:51.435Z,13.33
2018-01-13T16:09:19.214Z,11.53
2018-01-13T16:11:47.690Z,14.30
2018-01-13T16:14:15.569Z,14.43
2018-01-13T16:16:43.374Z,15.57
2018-01-13T16:19:11.087Z,13.90
2018-01-13T16:21:39.603Z,13.93
2018-01-13T16:24:07.337Z,13.80
2018-01-13T16:26:35.089Z,12.90
2018-01-13T16:29:03.732Z,14.40
2018-01-13T16:31:31.480Z,12.20
2018-01-13T16:33:59.385Z,12.30
2018-01-13T16:36:27.820Z,12.30
2018-01-13T16:38:55.539Z,11.63
2018-01-13T16:41:24.458Z,11.50
2018-01-13T16:43:52.558Z,13.30
2018-01-13T16:46:20.227Z,12.43
2018-01-13T16:48:49.834Z,12.27
2018-01-13T16:51:17.638Z,12.80
2018-01-13T16:53:45.354Z,13.93
2018-01-13T16:56:13.104Z,11.50
2018-01-13T16:58:40.943Z,12.07
2018-01-13T17:01:09.199Z,12.03
2018-01-13T17:03:37.374Z,11.70
2018-01-13T17:06:05.108Z,12.37
2018-01-13T17:08:33.650Z,12.90
2018-01-13T17:11:01.429Z,12.33
2018-01-13T17:13:30.321Z,11.57
2018-01-13T17:15:58.064Z,12.43
2018-01-13T17:18:25.844Z,13.13
2018-01-13T17:20:54.222Z,13.70
2018-01-13T17:23:24.919Z,13.13
2018-01-13T17:25:53.962Z,13.50
2018-01-13T17:28:21.802Z,13.67
2018-01-13T17:30:50.292Z,13.47
2018-01-13T17:33:18.855Z,13.97
2018-01-13T17:35:46.602Z,12.87
2018-01-13T17:38:14.347Z,14.97
2018-01-13T17:40:42.133Z,13.90
2018-01-13T17:43:09.933Z,14.87
2018-01-13T17:45:37.710Z,13.73
2018-01-13T17:48:05.464Z,12.50
2018-01-13T17:50:33.116Z,15.47
2018-01-13T17:53:00.932Z,12.77
2018-01-13T17:55:28.619Z,13.47
2018-01-13T17:57:56.811Z,13.10
2018-01-13T18:00:25.272Z,13.37
2018-01-13T18:02:53.960Z,11.80
2018-01-13T18:05:22.763Z,13.30
2018-01-13T18:07:50.569Z,11.30
2018-01-13T18:10:18.209Z,11.47
2018-01-13T18:12:45.903Z,11.20
2018-01-13T18:15:13.574Z,11.50
2018-01-13T18:17:41.272Z,12.67
2018-01-13T18:20:08.922Z,15.10
2018-01-13T18:22:37.343Z,13.70
2018-01-13T18:25:05.034Z,14.93
2018-01-13T18:27:32.707Z,15.23
2018-01-13T18:30:01.172Z,15.27
2018-01-13T18:32:28.826Z,15.70
2018-01-13T18:34:56.527Z,13.33
2018-01-13T18:37:24.178Z,13.03
2018-01-13T18:39:51.873Z,13.17
2018-01-13T18:42:19.648Z,11.07
2018-01-13T18:44:48.227Z,11.73
2018-01-13T18:47:16.002Z,12.67
2018-01-13T18:49:43.760Z,12.30
2018-01-13T18:52:11.510Z,12.90
2018-01-13T18:54:39.975Z,11.87
2018-01-13T18:57:07.632Z,10.13
2018-01-13T18:59:35.326Z,13.77
2018-01-13T19:02:03.002Z,11.60
2018-01-13T19:04:31.457Z,10.13
2018-01-13T19:06:59.131Z,12.50
2018-01-13T19:09:26.830Z,7.37
2018-01-13T19:11:54.491Z,8.97
2018-01-13T19:14:22.196Z,18.20
2018-01-13T19:16:49.864Z,8.30
2018-01-13T19:19:17.565Z,9.07
2018-01-13T19:21:45.247Z,8.57
2018-01-13T19:24:12.938Z,7.50
2018-01-13T19:26:40.590Z,8.00
2018-01-13T19:29:08.282Z,6.70
2018-01-13T19:31:36.706Z,7.60
2018-01-13T19:34:04.854Z,7.83
2018-01-13T19:36:32.497Z,7.93
2018-01-13T19:39:00.187Z,7.43
2018-01-13T19:41:27.846Z,8.17
2018-01-13T19:43:55.553Z,7.90
2018-01-13T19:46:23.222Z,6.47
2018-01-13T19:48:51.688Z,7.10
2018-01-13T19:51:19.338Z,7.27
2018-01-13T19:53:47.043Z,8.53
2018-01-13T19:56:14.716Z,7.43
2018-01-13T19:58:42.415Z,7.73
2018-01-13T20:01:10.066Z,7.30
2018-01-13T20:03:37.760Z,7.70
2018-01-13T20:06:06.186Z,7.40
2018-01-13T20:08:33.884Z,7.93
2018-01-13T20:11:01.533Z,8.00
2018-01-13T20:13:29.221Z,8.13
2018-01-13T20:15:57.647Z,8.17
2018-01-13T20:18:25.350Z,7.67
2018-01-13T20:20:53.775Z,8.10
2018-01-13T20:23:21.478Z,7.70
2018-01-13T20:25:49.173Z,7.07
2018-01-13T20:28:16.875Z,7.77
2018-01-13T20:30:44.546Z,7.43
2018-01-13T20:33:12.223Z,7.60
2018-01-13T20:35:39.947Z,6.73
2018-01-13T20:38:07.611Z,7.40
2018-01-13T20:40:35.318Z,8.27
2018-01-13T20:43:02.979Z,7.20
2018-01-13T20:45:30.708Z,6.80
2018-01-13T20:47:58.375Z,7.40
2018-01-13T20:50:26.074Z,9.47
2018-01-13T20:52:53.751Z,9.40
2018-01-13T20:55:21.471Z,8.10
2018-01-13T20:57:50.020Z,9.37
2018-01-13T21:00:17.724Z,7.90
2018-01-13T21:02:45.390Z,8.47
2018-01-13T21:05:13.094Z,10.03
2018-01-13T21:07:40.754Z,9.67
2018-01-13T21:10:08.466Z,10.03
2018-01-13T21:12:36.134Z,10.57
2018-01-13T21:15:03.887Z,10.73
2018-01-13T21:17:31.541Z,10.80
2018-01-13T21:19:59.236Z,9.80
2018-01-13T21:22:26.884Z,9.60
2018-01-13T21:24:54.617Z,11.07
2018-01-13T21:27:22.517Z,9.67
2018-01-13T21:29:50.210Z,9.00
2018-01-13T21:32:17.858Z,9.10
2018-01-13T21:34:45.579Z,8.40
2018-01-13T21:37:13.232Z,9.33
2018-01-13T21:39:40.923Z,9.00
2018-01-13T21:42:08.581Z,9.60
2018-01-13T21:44:36.267Z,9.43
2018-01-13T21:47:03.926Z,8.40
2018-01-13T21:49:31.718Z,8.53
2018-01-13T21:52:00.141Z,8.33
2018-01-13T21:54:27.829Z,9.00
2018-01-13T21:56:55.672Z,9.10
2018-01-13T21:59:24.133Z,8.47
2018-01-13T22:01:51.781Z,8.60
2018-01-13T22:04:19.477Z,9.73
2018-01-13T22:06:47.121Z,9.63
2018-01-13T22:09:14.819Z,9.43
2018-01-13T22:11:43.253Z,8.37
2018-01-13T22:14:10.946Z,9.13
2018-01-13T22:16:38.616Z,8.33
2018-01-13T22:19:07.071Z,8.17
2018-01-13T22:21:34.759Z,8.77
2018-01-13T22:24:03.242Z,7.87
2018-01-13T22:26:31.653Z,9.30
2018-01-13T22:28:59.350Z,8.03
2018-01-13T22:31:27.007Z,10.07
2018-01-13T22:33:54.707Z,7.63
2018-01-13T22:36:22.360Z,7.53
2018-01-13T22:38:50.774Z,9.30
2018-01-13T22:41:18.469Z,8.63
2018-01-13T22:43:46.132Z,9.70
2018-01-13T22:46:13.829Z,9.80
2018-01-13T22:48:41.482Z,8.43
2018-01-13T22:51:09.182Z,7.80
2018-01-13T22:53:36.831Z,8.30
2018-01-13T22:56:04.526Z,8.40
2018-01-13T22:58:32.171Z,8.67
2018-01-13T23:00:59.854Z,8.30
2018-01-13T23:03:27.510Z,9.83
2018-01-13T23:05:55.201Z,7.80
2018-01-13T23:08:22.864Z,6.37
2018-01-13T23:10:50.663Z,8.00
2018-01-13T23:13:18.327Z,7.90
2018-01-13T23:15:46.033Z,8.70
2018-01-13T23:18:14.502Z,9.10
2018-01-13T23:20:42.967Z,7.83
2018-01-13T23:23:10.622Z,8.30
2018-01-13T23:25:38.333Z,9.50
2018-01-13T23:28:05.998Z,8.67
2018-01-13T23:30:33.700Z,8.20
2018-01-13T23:33:01.487Z,9.00
2018-01-13T23:35:29.954Z,9.93
2018-01-13T23:37:58.378Z,8.57
2018-01-13T23:40:26.082Z,7.90
2018-01-13T23:42:53.739Z,9.20
2018-01-13T23:45:21.440Z,7.97
2018-01-13T23:47:49.094Z,8.67
2018-01-13T23:50:16.803Z,8.80
2018-01-13T23:52:44.466Z,8.30
2018-01-13T23:55:12.179Z,8.97
2018-01-13T23:57:39.842Z,9.20
